Time;durP1;ratioP1;P1;durP2;ratioP2;P2;SDS_P1;SDS_P2;PMS_P1;PMS_P2;Temp;Humidity;BMP_temperature;BMP_pressure;BME280_temperature;BME280_humidity;BME280_pressure;Samples;Min_cycle;Max_cycle;Signal;HPM_P1;HPM_P2
2022/07/25 00:00:42;;;;;;;;;;;26.70;48.40;25.60;100764.00;;;;5024411;28;20076;-66
2022/07/25 00:03:28;;;;;;;3.60;3.30;;;26.70;49.00;25.60;100757.00;;;;5056576;28;20428;-66
2022/07/25 00:06:14;;;;;;;5.03;3.85;;;26.80;48.30;25.60;100751.00;;;;5019510;28;20093;-66
2022/07/25 00:09:00;;;;;;;4.18;3.40;;;26.70;48.30;25.60;100753.00;;;;5025870;28;20042;-66
2022/07/25 00:11:46;;;;;;;3.30;3.00;;;26.70;48.40;25.60;100739.00;;;;5022201;28;20045;-66
2022/07/25 00:14:32;;;;;;;4.20;3.38;;;26.70;48.30;25.60;100741.00;;;;5025089;28;20048;-66
2022/07/25 00:17:18;;;;;;;3.80;3.20;;;26.70;48.40;25.60;100729.00;;;;5024691;28;20095;-66
2022/07/25 00:20:06;;;;;;;3.72;3.33;;;26.80;48.40;25.60;100723.00;;;;5021549;28;20045;-66
2022/07/25 00:22:52;;;;;;;4.13;3.72;;;26.70;48.40;25.60;100724.00;;;;5028022;28;20128;-66
2022/07/25 00:25:38;;;;;;;4.13;3.22;;;26.70;48.40;25.60;100718.00;;;;5025699;28;20037;-66
2022/07/25 00:28:24;;;;;;;3.83;3.50;;;26.60;48.40;25.60;100710.00;;;;5031870;28;20075;-66
2022/07/25 00:31:10;;;;;;;5.80;3.47;;;26.70;48.40;25.60;100707.00;;;;5020539;28;20049;-66
2022/07/25 00:33:56;;;;;;;3.88;3.47;;;26.70;48.40;25.60;100702.00;;;;5024516;28;20048;-66
2022/07/25 00:36:42;;;;;;;3.78;3.35;;;26.70;48.40;25.60;100697.00;;;;5028705;28;20041;-66
2022/07/25 00:39:28;;;;;;;3.88;3.58;;;26.60;48.40;25.60;100705.00;;;;5017764;28;20399;-66
2022/07/25 00:42:14;;;;;;;4.53;3.70;;;26.70;48.40;25.60;100700.00;;;;5022327;28;20077;-67
2022/07/25 00:45:00;;;;;;;3.67;3.33;;;26.60;48.40;25.60;100702.00;;;;5020730;28;20068;-66
2022/07/25 00:47:47;;;;;;;3.63;3.33;;;26.70;48.40;25.60;100694.00;;;;5019931;28;20033;-66
2022/07/25 00:50:33;;;;;;;3.95;3.42;;;26.70;48.50;25.60;100698.00;;;;5018860;28;20380;-66
2022/07/25 00:53:19;;;;;;;4.97;3.53;;;26.60;48.40;25.60;100700.00;;;;5026488;28;20033;-66
2022/07/25 00:56:05;;;;;;;3.60;3.30;;;26.60;48.40;25.60;100697.00;;;;5019305;28;20045;-66
2022/07/25 00:58:51;;;;;;;4.60;3.00;;;26.70;48.50;25.50;100698.00;;;;5017636;28;20081;-66
2022/07/25 01:01:38;;;;;;;3.80;3.50;;;26.70;48.50;25.50;100694.00;;;;5023733;28;20041;-66
2022/07/25 01:04:24;;;;;;;3.60;3.17;;;26.70;48.50;25.60;100695.00;;;;5023913;28;20053;-66
2022/07/25 01:07:10;;;;;;;3.65;3.20;;;26.70;48.50;25.50;100694.00;;;;5019938;28;20046;-66
2022/07/25 01:09:56;;;;;;;3.50;3.20;;;26.70;48.50;25.50;100697.00;;;;5020490;28;20030;-66
2022/07/25 01:12:50;;;;;;;3.45;3.10;;;26.70;48.50;25.50;100700.00;;;;5023679;28;20044;-66
2022/07/25 01:15:36;;;;;;;3.80;3.28;;;26.60;48.40;25.50;100689.00;;;;5022667;28;20101;-66
2022/07/25 01:18:22;;;;;;;4.85;3.50;;;26.60;48.40;25.50;100693.00;;;;5023487;28;20057;-66
2022/07/25 01:21:08;;;;;;;3.75;3.45;;;26.60;48.40;25.50;100685.00;;;;5019453;28;20146;-66
2022/07/25 01:23:54;;;;;;;3.45;3.15;;;26.60;48.40;25.50;100677.00;;;;5022942;28;20049;-66
2022/07/25 01:26:40;;;;;;;3.97;3.38;;;26.70;48.50;25.50;100681.00;;;;5020860;28;20042;-66
2022/07/25 01:29:27;;;;;;;4.05;3.38;;;26.60;48.40;25.50;100683.00;;;;5016385;28;20102;-66
2022/07/25 01:32:13;;;;;;;3.63;3.30;;;26.60;48.40;25.50;100680.00;;;;5019522;28;20048;-67
2022/07/25 01:34:59;;;;;;;4.13;3.72;;;26.60;48.40;25.50;100671.00;;;;5024914;28;20038;-66
2022/07/25 01:37:45;;;;;;;3.50;3.20;;;26.70;48.50;25.50;100671.00;;;;5022518;28;20041;-66
2022/07/25 01:40:31;;;;;;;4.07;3.25;;;26.70;48.60;25.50;100669.00;;;;5022973;28;20384;-66
2022/07/25 01:43:17;;;;;;;5.53;4.80;;;26.60;49.20;25.50;100672.00;;;;5028660;28;20045;-66
2022/07/25 01:46:03;;;;;;;4.72;3.38;;;26.60;48.50;25.50;100662.00;;;;5025479;28;20463;-66
2022/07/25 01:48:49;;;;;;;3.38;3.08;;;26.60;48.50;25.50;100657.00;;;;5027705;28;20037;-66
2022/07/25 01:51:35;;;;;;;3.92;3.30;;;26.60;48.50;25.50;100649.00;;;;5015468;28;20033;-66
2022/07/25 01:54:21;;;;;;;3.83;3.53;;;26.60;48.50;25.50;100646.00;;;;5021211;28;20454;-66
2022/07/25 01:57:27;;;;;;;3.60;3.30;;;26.60;48.50;25.50;100642.00;;;;5021998;28;20042;-66
2022/07/25 02:00:14;;;;;;;3.10;2.80;;;26.60;48.50;25.50;100637.00;;;;5022241;28;20049;-66
2022/07/25 02:06:06;;;;;;;5.53;3.60;;;26.60;48.50;25.50;100640.00;;;;5023881;28;20033;-66
2022/07/25 02:08:52;;;;;;;3.60;3.30;;;26.60;48.50;25.50;100642.00;;;;4995279;28;20040;-66
2022/07/25 02:11:38;;;;;;;3.55;3.22;;;26.60;48.50;25.50;100632.00;;;;5021779;28;20048;-66
2022/07/25 02:14:24;;;;;;;3.42;3.13;;;26.60;48.50;25.50;100630.00;;;;5021353;28;20049;-66
2022/07/25 02:17:10;;;;;;;4.00;3.35;;;26.60;48.50;25.50;100631.00;;;;5023861;28;20053;-66
2022/07/25 02:19:56;;;;;;;4.60;3.70;;;26.60;48.50;25.50;100626.00;;;;5020332;28;20115;-66
2022/07/25 02:22:42;;;;;;;4.03;3.70;;;26.60;48.50;25.50;100624.00;;;;5022688;28;20041;-66
2022/07/25 02:25:28;;;;;;;3.53;3.22;;;26.60;48.50;25.50;100625.00;;;;5025477;28;20032;-66
2022/07/25 02:28:14;;;;;;;3.67;2.97;;;26.60;48.50;25.50;100637.00;;;;5022416;28;20045;-66
2022/07/25 02:31:00;;;;;;;3.90;3.58;;;26.60;48.60;25.50;100630.00;;;;5024625;28;20046;-66
2022/07/25 02:33:47;;;;;;;3.72;3.42;;;26.60;48.60;25.50;100622.00;;;;5025278;28;20371;-66
2022/07/25 02:36:33;;;;;;;3.53;3.20;;;26.60;48.60;25.50;100618.00;;;;5027705;28;20048;-66
2022/07/25 02:39:20;;;;;;;3.92;3.47;;;26.60;48.60;25.50;100619.00;;;;5027618;28;20048;-66
2022/07/25 02:42:06;;;;;;;3.80;3.38;;;26.60;48.60;25.40;100614.00;;;;5024930;28;20042;-66
2022/07/25 02:44:52;;;;;;;4.22;3.67;;;26.60;48.60;25.50;100614.00;;;;5023234;28;20088;-66
2022/07/25 02:47:38;;;;;;;3.95;3.55;;;26.50;48.50;25.40;100610.00;;;;5030458;28;20536;-66
2022/07/25 02:50:24;;;;;;;4.07;3.22;;;26.60;48.60;25.40;100603.00;;;;5029395;28;20205;-66
2022/07/25 02:53:10;;;;;;;3.78;3.38;;;26.60;48.60;25.40;100607.00;;;;5029677;28;20213;-66
2022/07/25 02:55:56;;;;;;;4.97;3.67;;;26.60;48.60;25.40;100600.00;;;;5030301;28;20041;-66
2022/07/25 02:58:42;;;;;;;3.95;3.55;;;26.60;48.60;25.40;100598.00;;;;5025929;28;20053;-66
2022/07/25 03:01:28;;;;;;;3.97;3.58;;;26.60;48.60;25.40;100591.00;;;;5026814;28;20474;-66
2022/07/25 03:04:14;;;;;;;4.05;3.65;;;26.60;48.60;25.40;100589.00;;;;5026884;28;20049;-66
2022/07/25 03:07:00;;;;;;;4.90;3.83;;;26.60;48.60;25.40;100586.00;;;;5026029;28;20038;-66
2022/07/25 03:09:46;;;;;;;4.95;3.88;;;26.50;48.50;25.40;100578.00;;;;5021284;28;20049;-67
2022/07/25 03:12:32;;;;;;;6.03;4.00;;;26.50;48.60;25.40;100580.00;;;;5023586;28;20041;-66
2022/07/25 03:15:19;;;;;;;4.53;3.80;;;26.50;48.60;25.40;100576.00;;;;5027130;28;20046;-66
2022/07/25 03:18:05;;;;;;;3.75;3.45;;;26.50;48.60;25.40;100574.00;;;;5023509;28;20468;-67
2022/07/25 03:20:51;;;;;;;3.75;3.45;;;26.50;48.60;25.40;100571.00;;;;5021914;28;20112;-66
2022/07/25 03:23:37;;;;;;;6.00;3.78;;;26.60;48.60;25.40;100569.00;;;;5027706;28;20049;-66
2022/07/25 03:26:23;;;;;;;4.10;3.63;;;26.50;48.60;25.40;100570.00;;;;5025959;28;20113;-66
2022/07/25 03:29:09;;;;;;;4.13;3.80;;;26.50;48.60;25.40;100569.00;;;;5028082;28;20050;-66
2022/07/25 03:31:55;;;;;;;4.07;3.67;;;26.50;48.60;25.40;100568.00;;;;5028843;28;20091;-66
2022/07/25 03:34:42;;;;;;;3.88;3.58;;;26.50;48.60;25.40;100572.00;;;;5025738;28;20116;-66
2022/07/25 03:37:28;;;;;;;5.80;3.35;;;26.50;48.60;25.40;100560.00;;;;5030966;28;20087;-66
2022/07/25 03:40:14;;;;;;;4.22;3.80;;;26.50;48.60;25.40;100568.00;;;;5022598;28;20045;-65
2022/07/25 03:43:00;;;;;;;4.22;3.70;;;26.50;48.60;25.40;100558.00;;;;5020737;28;20045;-66
2022/07/25 03:45:46;;;;;;;5.18;4.00;;;26.50;48.60;25.40;100560.00;;;;5020274;28;20104;-66
2022/07/25 03:48:32;;;;;;;4.28;3.88;;;26.50;48.60;25.40;100557.00;;;;5024250;28;20044;-66
2022/07/25 03:51:18;;;;;;;4.38;3.97;;;26.50;48.60;25.40;100549.00;;;;5019294;28;20084;-66
2022/07/25 03:54:05;;;;;;;4.30;3.90;;;26.50;48.60;25.40;100545.00;;;;5024940;28;20034;-66
2022/07/25 03:56:51;;;;;;;4.95;3.80;;;26.50;48.60;25.40;100534.00;;;;5024485;28;20037;-66
2022/07/25 03:59:38;;;;;;;4.50;3.97;;;26.50;48.70;25.40;100529.00;;;;5023713;28;20034;-66
2022/07/25 04:02:24;;;;;;;4.20;3.67;;;26.50;48.70;25.40;100538.00;;;;5026232;28;20491;-66
2022/07/25 04:05:10;;;;;;;4.15;3.75;;;26.50;48.60;25.40;100531.00;;;;5023803;28;20046;-66
2022/07/25 04:07:56;;;;;;;4.10;3.70;;;26.50;48.70;25.40;100523.00;;;;5022216;28;20072;-66
2022/07/25 04:10:42;;;;;;;5.03;4.17;;;26.50;48.70;25.40;100526.00;;;;5026653;28;20045;-65
2022/07/25 04:13:28;;;;;;;3.60;3.25;;;26.50;48.70;25.40;100531.00;;;;5027366;28;20386;-66
2022/07/25 04:16:15;;;;;;;4.10;3.75;;;26.50;48.70;25.40;100524.00;;;;5022842;28;20041;-66
2022/07/25 04:19:01;;;;;;;4.03;3.63;;;26.50;48.70;25.40;100516.00;;;;5023544;28;20059;-66
2022/07/25 04:21:47;;;;;;;3.97;3.50;;;26.50;48.70;25.40;100516.00;;;;5023872;28;20045;-66
2022/07/25 04:24:33;;;;;;;4.40;4.00;;;26.50;48.70;25.40;100513.00;;;;5023976;28;20111;-66
2022/07/25 04:27:19;;;;;;;4.40;3.55;;;26.50;48.70;25.40;100519.00;;;;5027164;28;20045;-66
2022/07/25 04:30:06;;;;;;;4.47;4.07;;;26.50;48.70;25.40;100516.00;;;;5024197;28;20100;-66
2022/07/25 04:32:52;;;;;;;5.07;3.63;;;26.40;48.70;25.40;100508.00;;;;5026559;28;20029;-66
2022/07/25 04:35:38;;;;;;;4.18;3.80;;;26.50;48.70;25.40;100517.00;;;;5019624;28;20038;-66
2022/07/25 04:38:24;;;;;;;4.15;3.72;;;26.40;48.60;25.40;100513.00;;;;5028991;28;20076;-66
2022/07/25 04:41:10;;;;;;;5.18;4.22;;;26.40;48.70;25.40;100503.00;;;;5022067;28;20057;-66
2022/07/25 04:43:56;;;;;;;5.00;3.72;;;26.50;48.80;25.40;100500.00;;;;5021664;28;20046;-66
2022/07/25 04:46:42;;;;;;;4.47;4.07;;;26.40;48.60;25.40;100499.00;;;;5026694;28;20052;-66
2022/07/25 04:49:28;;;;;;;4.20;3.85;;;26.40;48.70;25.40;100497.00;;;;5020088;28;20049;-66
2022/07/25 04:52:14;;;;;;;4.82;4.18;;;26.40;48.60;25.40;100495.00;;;;5024297;28;20350;-66
2022/07/25 04:55:01;;;;;;;4.90;3.92;;;26.50;48.70;25.40;100493.00;;;;5026410;28;20041;-66
2022/07/25 04:57:47;;;;;;;4.03;3.63;;;26.50;48.80;25.40;100485.00;;;;5027843;28;20501;-66
2022/07/25 05:00:33;;;;;;;4.95;4.45;;;26.50;48.70;25.40;100480.00;;;;5024582;28;20518;-66
2022/07/25 05:03:19;;;;;;;5.25;3.92;;;26.50;48.70;25.40;100487.00;;;;5024235;28;20046;-66
2022/07/25 05:06:06;;;;;;;4.28;3.75;;;26.50;48.70;25.40;100473.00;;;;5024787;28;20044;-66
2022/07/25 05:08:52;;;;;;;6.82;3.95;;;26.50;48.80;25.40;100478.00;;;;5022231;28;20109;-66
2022/07/25 05:11:38;;;;;;;4.78;4.28;;;26.50;48.80;25.40;100475.00;;;;5024623;28;20471;-66
2022/07/25 05:14:24;;;;;;;7.75;4.47;;;26.40;48.60;25.30;100476.00;;;;5024737;28;20059;-66
2022/07/25 05:17:10;;;;;;;4.95;4.30;;;26.40;48.70;25.40;100483.00;;;;5025250;28;20107;-66
2022/07/25 05:19:57;;;;;;;4.25;3.80;;;26.50;48.70;25.40;100482.00;;;;5023359;28;20052;-65
2022/07/25 05:22:43;;;;;;;5.57;4.13;;;26.40;48.60;25.30;100476.00;;;;5025454;28;20049;-66
2022/07/25 05:25:29;;;;;;;10.75;4.30;;;26.50;48.70;25.40;100473.00;;;;5023755;28;20052;-66
2022/07/25 05:28:15;;;;;;;4.88;4.35;;;26.40;48.60;25.30;100470.00;;;;5022518;28;20041;-66
2022/07/25 05:31:01;;;;;;;5.60;4.88;;;26.50;48.70;25.40;100468.00;;;;5019058;28;20479;-66
2022/07/25 05:33:47;;;;;;;5.28;4.68;;;26.50;48.70;25.30;100465.00;;;;5025304;28;20045;-66
2022/07/25 05:36:33;;;;;;;4.72;4.32;;;26.40;48.70;25.30;100462.00;;;;5025555;28;20495;-66
2022/07/25 05:39:19;;;;;;;6.13;5.15;;;26.50;48.80;25.30;100463.00;;;;5022571;28;20042;-66
2022/07/25 05:42:06;;;;;;;6.13;5.13;;;26.50;48.80;25.30;100453.00;;;;5019746;28;20037;-66
2022/07/25 05:44:52;;;;;;;5.38;4.75;;;26.50;48.80;25.30;100449.00;;;;5020143;28;20095;-66
2022/07/25 05:47:38;;;;;;;7.53;4.78;;;26.40;48.70;25.30;100442.00;;;;5024800;28;20063;-66
2022/07/25 05:50:24;;;;;;;6.47;4.93;;;26.40;48.70;25.30;100449.00;;;;5019673;28;20073;-66
2022/07/25 05:53:11;;;;;;;6.03;4.78;;;26.50;48.80;25.30;100443.00;;;;5025185;28;20033;-66
2022/07/25 05:55:57;;;;;;;7.47;5.13;;;26.40;48.80;25.30;100443.00;;;;5019789;28;20453;-66
2022/07/25 05:58:43;;;;;;;5.20;4.70;;;26.50;48.80;25.30;100443.00;;;;5019577;28;20120;-66
2022/07/25 06:01:29;;;;;;;6.70;5.15;;;26.50;48.80;25.30;100437.00;;;;5026808;28;20045;-66
2022/07/25 06:04:15;;;;;;;6.43;4.60;;;26.50;48.80;25.30;100442.00;;;;5023134;28;20111;-66
2022/07/25 06:07:06;;;;;;;6.07;4.95;;;26.40;48.80;25.30;100444.00;;;;5025318;28;20043;-66
2022/07/25 06:09:52;;;;;;;6.32;4.53;;;26.50;48.80;25.30;100444.00;;;;5017684;28;20037;-66
2022/07/25 06:12:38;;;;;;;4.68;4.20;;;26.40;48.70;25.30;100437.00;;;;5020610;28;20029;-66
2022/07/25 06:15:24;;;;;;;6.30;4.90;;;26.40;48.70;25.30;100434.00;;;;5021147;28;20087;-66
2022/07/25 06:18:11;;;;;;;6.28;5.07;;;26.40;48.70;25.30;100437.00;;;;5020012;28;20361;-66
2022/07/25 06:20:57;;;;;;;6.70;4.85;;;26.40;48.70;25.30;100434.00;;;;4978728;28;1078658;-66
2022/07/25 06:23:43;;;;;;;8.15;4.38;;;26.40;48.70;25.30;100429.00;;;;5022530;28;20498;-66
2022/07/25 06:26:29;;;;;;;10.32;6.78;;;26.40;48.70;25.30;100429.00;;;;5022852;28;20400;-66
2022/07/25 06:29:15;;;;;;;7.18;5.05;;;26.40;48.70;25.30;100423.00;;;;5017462;28;20042;-66
2022/07/25 06:32:01;;;;;;;8.52;5.03;;;26.50;48.70;25.30;100431.00;;;;5018945;28;20037;-66
2022/07/25 06:34:47;;;;;;;10.25;5.35;;;26.40;48.70;25.30;100424.00;;;;5016547;28;20041;-66
2022/07/25 06:37:38;;;;;;;7.60;4.63;;;26.40;48.70;25.30;100428.00;;;;5023158;28;20043;-66
2022/07/25 06:40:24;;;;;;;6.38;4.68;;;26.40;48.70;25.30;100425.00;;;;5018057;28;20050;-66
2022/07/25 06:43:10;;;;;;;5.95;4.72;;;26.40;48.70;25.30;100425.00;;;;5021788;28;20041;-66
2022/07/25 06:45:56;;;;;;;7.53;5.13;;;26.40;48.70;25.30;100415.00;;;;5021918;28;20545;-66
2022/07/25 06:48:42;;;;;;;6.15;4.90;;;26.30;48.60;25.30;100411.00;;;;5023340;28;20037;-66
2022/07/25 06:51:28;;;;;;;6.28;5.53;;;26.40;48.70;25.30;100419.00;;;;5025443;28;20139;-66
2022/07/25 06:54:14;;;;;;;6.28;4.63;;;26.40;48.70;25.30;100415.00;;;;5023815;28;20127;-66
2022/07/25 06:57:00;;;;;;;7.80;4.90;;;26.40;48.70;25.30;100404.00;;;;5021956;28;20045;-66
2022/07/25 06:59:46;;;;;;;4.93;4.38;;;26.40;48.70;25.30;100408.00;;;;5024382;28;20424;-66
2022/07/25 07:02:32;;;;;;;5.97;4.55;;;26.40;48.70;25.30;100414.00;;;;5016381;28;20073;-66
2022/07/25 07:05:18;;;;;;;9.20;4.72;;;26.40;48.70;25.30;100408.00;;;;5024922;28;20037;-66
2022/07/25 07:08:05;;;;;;;7.78;4.88;;;26.40;48.80;25.30;100411.00;;;;5016547;28;20128;-66
2022/07/25 07:10:51;;;;;;;6.00;4.45;;;26.50;48.80;25.30;100413.00;;;;5015937;28;20099;-66
2022/07/25 07:13:37;;;;;;;6.93;4.93;;;26.40;48.70;25.30;100407.00;;;;5018452;28;20036;-66
2022/07/25 07:16:23;;;;;;;5.57;4.88;;;26.40;48.70;25.30;100407.00;;;;5024203;28;20413;-66
2022/07/25 07:19:09;;;;;;;6.90;4.88;;;26.30;48.70;25.30;100398.00;;;;5018296;28;20069;-66
2022/07/25 07:21:56;;;;;;;5.55;4.55;;;26.40;48.80;25.30;100403.00;;;;5022984;28;20501;-65
2022/07/25 07:24:42;;;;;;;5.25;4.53;;;26.40;48.80;25.30;100395.00;;;;5028159;28;20380;-66
2022/07/25 07:27:28;;;;;;;5.63;4.78;;;26.40;48.80;25.30;100394.00;;;;5025621;28;20040;-66
2022/07/25 07:30:14;;;;;;;10.70;4.68;;;26.40;48.80;25.30;100392.00;;;;5028358;28;20049;-66
2022/07/25 07:33:00;;;;;;;8.20;4.60;;;26.50;48.90;25.30;100397.00;;;;5027624;28;20034;-66
2022/07/25 07:35:46;;;;;;;6.95;4.75;;;26.40;48.90;25.30;100395.00;;;;5021739;28;20056;-66
2022/07/25 07:38:32;;;;;;;7.20;4.57;;;26.30;48.70;25.30;100395.00;;;;5024735;28;20049;-66
2022/07/25 07:41:18;;;;;;;5.72;4.70;;;26.40;48.90;25.30;100384.00;;;;5020591;28;20064;-66
2022/07/25 07:44:04;;;;;;;8.27;5.15;;;26.40;48.90;25.30;100388.00;;;;5023997;28;20042;-66
2022/07/25 07:46:50;;;;;;;5.65;4.78;;;26.40;48.80;25.30;100393.00;;;;5028358;28;20099;-66
2022/07/25 07:49:36;;;;;;;8.38;4.63;;;26.40;48.90;25.30;100397.00;;;;5021932;28;20052;-66
2022/07/25 07:52:22;;;;;;;5.70;4.43;;;26.40;48.80;25.30;100379.00;;;;5027963;28;20562;-65
2022/07/25 07:58:16;;;;;;;6.68;4.70;;;26.40;48.80;25.30;100382.00;;;;5021812;28;20060;-65
2022/07/25 08:01:02;;;;;;;7.25;3.97;;;26.30;48.70;25.30;100379.00;;;;5021260;28;20525;-66
2022/07/25 08:03:48;;;;;;;6.22;5.22;;;26.40;48.80;25.30;100370.00;;;;5027937;28;20079;-66
2022/07/25 08:06:34;;;;;;;5.90;4.75;;;26.40;48.80;25.30;100364.00;;;;5028953;28;20493;-66
2022/07/25 08:09:20;;;;;;;6.85;4.28;;;26.40;48.80;25.30;100365.00;;;;5021727;28;20041;-65
2022/07/25 08:12:06;;;;;;;4.30;3.90;;;26.40;49.60;25.30;100369.00;;;;5027240;28;20045;-65
2022/07/25 08:14:52;;;;;;;6.68;4.35;;;26.40;48.90;25.30;100357.00;;;;5028300;28;20045;-66
2022/07/25 08:17:38;;;;;;;8.27;5.20;;;26.40;48.90;25.30;100357.00;;;;5019533;28;20038;-66
2022/07/25 08:20:24;;;;;;;4.68;4.07;;;26.50;49.00;25.30;100361.00;;;;5024078;28;20187;-66
2022/07/25 08:23:10;;;;;;;5.80;4.57;;;26.40;48.90;25.30;100351.00;;;;5024640;28;20048;-65
2022/07/25 08:25:56;;;;;;;12.25;4.55;;;26.40;48.90;25.30;100354.00;;;;5024957;28;20072;-66
2022/07/25 08:28:42;;;;;;;4.65;3.95;;;26.40;48.90;25.30;100349.00;;;;5023912;28;20034;-66
2022/07/25 08:31:28;;;;;;;5.78;4.38;;;26.40;48.90;25.30;100348.00;;;;5018081;28;20079;-66
2022/07/25 08:34:14;;;;;;;5.32;4.38;;;26.40;48.80;25.30;100345.00;;;;5031942;28;20037;-66
2022/07/25 08:37:01;;;;;;;5.22;4.10;;;26.40;48.80;25.30;100351.00;;;;5022951;28;20059;-66
2022/07/25 08:39:47;;;;;;;6.30;4.30;;;26.40;48.80;25.30;100352.00;;;;5021365;28;20033;-66
2022/07/25 08:42:34;;;;;;;4.78;3.97;;;26.40;48.70;25.30;100351.00;;;;5020970;28;20075;-65
2022/07/25 08:45:20;;;;;;;5.45;4.35;;;26.40;48.80;25.30;100353.00;;;;5019583;28;20049;-66
2022/07/25 08:48:06;;;;;;;5.18;3.75;;;26.40;48.70;25.30;100361.00;;;;5021917;28;20152;-66
2022/07/25 08:50:53;;;;;;;5.35;4.20;;;26.40;48.70;25.30;100357.00;;;;5010003;28;20041;-66
2022/07/25 08:53:39;;;;;;;5.97;4.20;;;26.40;48.60;25.30;100355.00;;;;5019992;28;20042;-66
2022/07/25 08:56:25;;;;;;;4.78;4.13;;;26.40;48.50;25.30;100364.00;;;;5021749;28;20052;-66
2022/07/25 08:59:11;;;;;;;5.20;4.40;;;26.40;48.50;25.30;100361.00;;;;5026506;28;20094;-65
2022/07/25 09:02:01;;;;;;;4.95;3.72;;;26.40;48.50;25.30;100356.00;;;;5020305;28;20046;-66
2022/07/25 09:04:47;;;;;;;6.35;4.40;;;26.40;48.50;25.30;100357.00;;;;5020578;28;20381;-66
2022/07/25 09:07:35;;;;;;;6.40;3.90;;;26.40;49.20;25.30;100355.00;;;;5026045;28;20037;-66
2022/07/25 09:10:23;;;;;;;4.78;4.10;;;26.40;48.40;25.30;100353.00;;;;5047722;28;20134;-66
2022/07/25 09:13:13;;;;;;;4.53;3.75;;;26.40;48.40;25.30;100356.00;;;;5014842;28;20046;-66
2022/07/25 09:15:59;;;;;;;5.20;3.95;;;26.40;48.40;25.30;100351.00;;;;5008878;28;20045;-65
2022/07/25 09:18:45;;;;;;;4.93;4.13;;;26.40;48.40;25.30;100345.00;;;;5020356;28;20041;-66
2022/07/25 09:21:31;;;;;;;8.57;4.05;;;26.40;48.40;25.30;100345.00;;;;5025462;28;20045;-66
2022/07/25 09:24:21;;;;;;;5.70;4.47;;;26.40;48.50;25.30;100342.00;;;;5027561;28;20099;-65
2022/07/25 09:27:08;;;;;;;5.95;4.28;;;26.40;48.50;25.30;100342.00;;;;5021637;28;20053;-66
2022/07/25 09:29:54;;;;;;;;;;;26.40;48.50;25.30;100335.00;;;;5009746;28;20041;-66
2022/07/25 09:32:40;;;;;;;5.25;3.90;;;26.50;48.60;25.30;100335.00;;;;5049082;28;19917;-66
2022/07/25 09:35:37;;;;;;;5.45;4.22;;;26.50;48.50;25.30;100343.00;;;;5021271;28;20047;-66
2022/07/25 09:38:23;;;;;;;5.70;4.18;;;26.50;48.60;25.30;100343.00;;;;5026148;28;20046;-66
2022/07/25 09:41:09;;;;;;;7.57;4.43;;;26.50;48.60;25.30;100341.00;;;;5019901;28;20041;-66
2022/07/25 09:43:55;;;;;;;6.13;5.00;;;26.50;48.70;25.30;100332.00;;;;5017681;28;20064;-66
2022/07/25 09:46:41;;;;;;;6.72;4.85;;;26.30;48.60;25.30;100331.00;;;;5027959;28;20498;-66
2022/07/25 09:49:44;;;;;;;5.38;4.22;;;26.40;48.70;25.30;100338.00;;;;5022079;28;20059;-66
2022/07/25 09:52:30;;;;;;;7.22;4.30;;;26.40;48.70;25.40;100319.00;;;;5026863;28;20041;-66
2022/07/25 09:55:16;;;;;;;4.80;4.35;;;26.50;48.80;25.40;100318.00;;;;5028680;28;20049;-66
2022/07/25 09:58:02;;;;;;;4.75;4.10;;;26.50;48.80;25.40;100317.00;;;;5021545;28;20044;-66
2022/07/25 10:00:48;;;;;;;5.28;4.25;;;26.50;48.90;25.40;100319.00;;;;5016548;28;20060;-66
2022/07/25 10:03:51;;;;;;;7.55;4.50;;;26.50;48.90;25.40;100320.00;;;;5017824;28;20386;-66
2022/07/25 10:07:05;;;;;;;6.05;4.38;;;26.50;48.90;25.40;100330.00;;;;5034961;28;20029;-66
2022/07/25 10:09:53;;;;;;;6.35;4.78;;;26.50;49.00;25.40;100325.00;;;;5024345;28;20455;-65
2022/07/25 10:12:40;;;;;;;5.20;4.47;;;26.50;49.00;25.40;100330.00;;;;5015586;28;20476;-65
2022/07/25 10:15:26;;;;;;;7.10;5.53;;;26.60;49.90;25.40;100333.00;;;;5011572;28;20046;-65
2022/07/25 10:18:13;;;;;;;7.65;5.10;;;26.50;49.10;25.40;100330.00;;;;5033874;28;20318;-65
2022/07/25 10:21:10;;;;;;;7.00;4.80;;;26.50;49.20;25.40;100334.00;;;;5018515;28;20120;-66
2022/07/25 10:24:05;;;;;;;6.53;5.00;;;26.60;49.20;25.40;100336.00;;;;5012999;28;20052;-65
2022/07/25 10:26:52;;;;;;;6.13;4.97;;;26.50;49.10;25.40;100333.00;;;;5020333;28;20121;-66
2022/07/25 10:29:39;;;;;;;6.47;4.80;;;26.60;49.20;25.40;100324.00;;;;5019095;28;20049;-65
2022/07/25 10:32:26;;;;;;;6.13;4.40;;;26.60;49.20;25.40;100335.00;;;;5025581;28;20044;-65
2022/07/25 10:35:15;;;;;;;6.97;5.15;;;26.60;49.20;25.40;100336.00;;;;5012099;28;20049;-65
2022/07/25 10:38:03;;;;;;;5.68;4.28;;;26.60;49.20;25.40;100339.00;;;;5023693;28;20041;-66
2022/07/25 10:40:49;;;;;;;8.50;4.97;;;26.60;49.30;25.50;100335.00;;;;5022879;28;20139;-66
2022/07/25 10:43:37;;;;;;;8.13;5.15;;;26.60;49.30;25.50;100337.00;;;;5021981;28;20474;-65
2022/07/25 10:46:25;;;;;;;4.97;4.47;;;26.60;49.30;25.40;100338.00;;;;5043115;28;20138;-65
2022/07/25 10:49:27;;;;;;;5.82;4.30;;;26.60;49.30;25.40;100339.00;;;;5024969;28;20046;-65
2022/07/25 10:52:16;;;;;;;6.07;5.00;;;26.60;49.50;25.50;100342.00;;;;5007449;28;20045;-65
2022/07/25 10:55:02;;;;;;;5.45;4.75;;;26.60;49.50;25.50;100347.00;;;;5024236;28;20079;-65
2022/07/25 10:58:03;;;;;;;5.60;4.85;;;26.60;49.40;25.50;100345.00;;;;5015771;28;20468;-66
2022/07/25 11:00:50;;;;;;;7.60;5.50;;;26.60;50.20;25.50;100347.00;;;;5030371;28;20544;-65
2022/07/25 11:03:36;;;;;;;7.80;4.88;;;26.70;49.60;25.50;100346.00;;;;5014312;28;20042;-65
2022/07/25 11:06:54;;;;;;;8.75;4.85;;;26.60;49.50;25.50;100352.00;;;;5008117;28;20038;-65
2022/07/25 11:09:41;;;;;;;10.05;4.78;;;26.70;49.60;25.50;100348.00;;;;5014626;28;20119;-65
2022/07/25 11:12:27;;;;;;;9.20;5.28;;;26.60;49.60;25.50;100344.00;;;;5021025;28;20033;-66
2022/07/25 11:15:13;;;;;;;8.93;5.60;;;26.60;49.60;25.50;100352.00;;;;5024550;28;20083;-66
2022/07/25 11:17:59;;;;;;;8.63;5.78;;;26.60;49.70;25.50;100345.00;;;;5025961;28;20049;-66
2022/07/25 11:20:45;;;;;;;6.78;4.95;;;26.60;49.70;25.50;100350.00;;;;5022862;28;20041;-66
2022/07/25 11:23:33;;;;;;;6.07;5.10;;;26.70;49.90;25.50;100342.00;;;;5020618;28;20041;-66
2022/07/25 11:26:19;;;;;;;7.03;5.78;;;26.60;49.70;25.50;100341.00;;;;5021440;28;20088;-67
2022/07/25 11:29:05;;;;;;;5.57;4.72;;;26.60;49.80;25.50;100337.00;;;;5023854;28;20399;-65
2022/07/25 11:32:11;;;;;;;6.38;4.78;;;26.70;49.70;25.50;100341.00;;;;5024734;28;20766;-66
2022/07/25 11:34:57;;;;;;;7.03;5.45;;;26.60;49.80;25.50;100347.00;;;;5024635;28;20124;-66
2022/07/25 11:37:47;;;;;;;13.70;5.57;;;26.70;50.00;25.50;100345.00;;;;5049601;28;20045;-65
2022/07/25 11:40:40;;;;;;;8.32;5.97;;;26.60;49.90;25.50;100362.00;;;;4997954;28;20052;-65
2022/07/25 11:43:26;;;;;;;6.97;5.45;;;26.70;50.10;25.50;100356.00;;;;5013969;28;20056;-65
2022/07/25 11:46:12;;;;;;;7.63;5.82;;;26.60;49.80;25.50;100347.00;;;;5024505;28;20078;-66
2022/07/25 11:49:04;;;;;;;8.88;5.72;;;26.70;50.00;25.50;100346.00;;;;5023811;28;20095;-65
2022/07/25 11:51:50;;;;;;;9.50;5.55;;;26.70;50.20;25.50;100355.00;;;;5025071;28;20041;-65
2022/07/25 11:54:36;;;;;;;7.05;5.47;;;26.60;50.00;25.50;100363.00;;;;5024612;28;22070;-66
2022/07/25 11:57:32;;;;;;;8.38;5.80;;;26.70;50.10;25.50;100370.00;;;;5028675;28;20044;-66
2022/07/25 12:00:19;;;;;;;5.85;4.82;;;26.60;50.00;25.60;100381.00;;;;5020526;28;20055;-66
2022/07/25 12:03:07;;;;;;;8.77;5.63;;;26.70;49.90;25.60;100383.00;;;;5023498;28;20041;-65
2022/07/25 12:05:54;;;;;;;9.93;5.25;;;26.70;49.90;25.60;100373.00;;;;5025872;28;20049;-65
2022/07/25 12:08:41;;;;;;;6.32;5.15;;;26.70;49.80;25.60;100383.00;;;;5026335;28;20061;-66
2022/07/25 12:11:27;;;;;;;6.68;5.20;;;26.70;49.90;25.60;100382.00;;;;5026270;28;20083;-66
2022/07/25 12:14:14;;;;;;;8.75;5.30;;;26.80;49.90;25.60;100379.00;;;;5023182;28;20127;-65
2022/07/25 12:17:00;;;;;;;8.15;4.95;;;26.70;50.50;25.60;100381.00;;;;5022601;28;20055;-66
2022/07/25 12:19:55;;;;;;;8.38;5.32;;;26.80;49.80;25.60;100393.00;;;;5021973;28;20052;-67